createdAt,value
2023-05-07T00:00:32.164Z,62.20
2023-05-07T00:02:59.907Z,62.23
2023-05-07T00:05:29.222Z,62.44
2023-05-07T00:07:59.106Z,62.35
2023-05-07T00:10:27.764Z,62.39
2023-05-07T00:12:55.575Z,62.49
2023-05-07T00:15:23.591Z,62.33
2023-05-07T00:17:51.437Z,62.19
2023-05-07T00:20:19.223Z,62.23
2023-05-07T00:22:48.293Z,62.16
2023-05-07T00:25:16.016Z,62.17
2023-05-07T00:27:43.697Z,62.38
2023-05-07T00:30:12.638Z,62.19
2023-05-07T00:32:42.715Z,62.35
2023-05-07T00:35:11.373Z,62.42
2023-05-07T00:37:39.258Z,62.29
2023-05-07T00:40:10.253Z,62.52
2023-05-07T00:42:38.532Z,62.56
2023-05-07T00:45:07.514Z,62.50
2023-05-07T00:47:35.655Z,62.55
2023-05-07T00:50:03.467Z,62.51
2023-05-07T00:52:31.874Z,62.42
2023-05-07T00:54:59.666Z,62.54
2023-05-07T00:57:28.987Z,62.64
2023-05-07T00:59:56.773Z,62.64
2023-05-07T01:02:24.496Z,62.65
2023-05-07T01:04:52.269Z,62.66
2023-05-07T01:07:20.684Z,62.34
2023-05-07T01:09:48.517Z,62.52
2023-05-07T01:12:16.640Z,62.81
2023-05-07T01:14:45.869Z,62.56
2023-05-07T01:17:13.734Z,62.75
2023-05-07T01:19:41.545Z,62.56
2023-05-07T01:22:11.542Z,62.77
2023-05-07T01:24:40.993Z,62.96
2023-05-07T01:27:08.662Z,62.68
2023-05-07T01:29:36.436Z,62.77
2023-05-07T01:32:05.438Z,62.87
2023-05-07T01:34:36.580Z,62.84
2023-05-07T01:37:04.862Z,62.98
2023-05-07T01:39:33.488Z,63.08
2023-05-07T01:42:02.573Z,62.95
2023-05-07T01:44:30.826Z,63.04
2023-05-07T01:46:59.384Z,63.04
2023-05-07T01:49:27.363Z,62.98
2023-05-07T01:51:56.176Z,62.99
2023-05-07T01:54:28.826Z,63.05
2023-05-07T01:56:58.177Z,63.14
2023-05-07T01:59:27.338Z,63.28
2023-05-07T02:01:55.205Z,63.29
2023-05-07T02:04:22.997Z,63.14
2023-05-07T02:06:50.874Z,63.21
2023-05-07T02:09:18.843Z,63.25
2023-05-07T02:11:46.721Z,63.29
2023-05-07T02:14:14.432Z,63.17
2023-05-07T02:16:43.722Z,63.40
2023-05-07T02:19:11.454Z,63.21
2023-05-07T02:21:39.204Z,63.42
2023-05-07T02:24:07.475Z,63.16
2023-05-07T02:26:35.181Z,63.25
2023-05-07T02:29:02.933Z,63.42
2023-05-07T02:31:30.620Z,63.03
2023-05-07T02:33:59.710Z,63.30
2023-05-07T02:36:27.589Z,63.45
2023-05-07T02:38:55.607Z,63.44
2023-05-07T02:41:23.363Z,63.45
2023-05-07T02:43:51.043Z,63.52
2023-05-07T02:46:18.817Z,63.59
2023-05-07T02:48:46.535Z,63.54
2023-05-07T02:51:16.021Z,63.54
2023-05-07T02:53:43.716Z,63.26
2023-05-07T02:56:11.444Z,63.33
2023-05-07T02:58:40.323Z,63.41
2023-05-07T03:01:08.198Z,63.70
2023-05-07T03:03:36.473Z,63.61
2023-05-07T03:06:04.554Z,63.43
2023-05-07T03:08:33.618Z,63.52
2023-05-07T03:11:01.382Z,63.72
2023-05-07T03:13:29.222Z,63.46
2023-05-07T03:15:57.132Z,63.90
2023-05-07T03:18:24.925Z,63.67
2023-05-07T03:20:53.930Z,63.94
2023-05-07T03:23:24.073Z,63.63
2023-05-07T03:25:53.787Z,63.95
2023-05-07T03:28:21.600Z,63.77
2023-05-07T03:30:49.501Z,63.86
2023-05-07T03:33:17.522Z,63.96
2023-05-07T03:35:45.216Z,64.02
2023-05-07T03:38:13.213Z,63.94
2023-05-07T03:40:40.989Z,64.10
2023-05-07T03:43:10.046Z,64.04
2023-05-07T03:45:37.721Z,64.05
2023-05-07T03:48:06.138Z,64.08
2023-05-07T03:50:33.950Z,64.19
2023-05-07T03:53:01.744Z,64.04
2023-05-07T03:55:30.058Z,63.94
2023-05-07T03:57:58.168Z,63.96
2023-05-07T04:00:27.536Z,63.80
2023-05-07T04:02:55.487Z,63.95
2023-05-07T04:05:23.620Z,64.04
2023-05-07T04:07:51.429Z,64.08
2023-05-07T04:10:19.186Z,63.91
2023-05-07T04:12:46.972Z,64.10
2023-05-07T04:15:15.193Z,63.92
2023-05-07T04:17:44.772Z,63.98
2023-05-07T04:20:18.686Z,64.21
2023-05-07T04:22:46.469Z,64.24
2023-05-07T04:25:14.748Z,64.04
2023-05-07T04:27:42.656Z,64.13
2023-05-07T04:30:11.491Z,64.25
2023-05-07T04:32:40.059Z,64.06
2023-05-07T04:35:09.816Z,64.19
2023-05-07T04:37:37.646Z,64.04
2023-05-07T04:40:06.170Z,64.21
2023-05-07T04:42:33.958Z,64.19
2023-05-07T04:45:02.528Z,64.22
2023-05-07T04:47:30.727Z,64.19
2023-05-07T04:49:59.712Z,64.18
2023-05-07T04:52:28.911Z,64.19
2023-05-07T04:54:56.842Z,64.46
2023-05-07T04:57:24.622Z,64.47
2023-05-07T04:59:53.458Z,64.36
2023-05-07T05:02:21.370Z,64.36
2023-05-07T05:04:49.107Z,64.49
2023-05-07T05:07:16.926Z,64.51
2023-05-07T05:09:46.113Z,64.80
2023-05-07T05:12:13.975Z,64.73
2023-05-07T05:14:41.767Z,64.79
2023-05-07T05:17:09.540Z,64.78
2023-05-07T05:19:37.372Z,64.93
2023-05-07T05:22:05.889Z,64.68
2023-05-07T05:24:33.940Z,64.57
2023-05-07T05:27:03.775Z,64.80
2023-05-07T05:29:32.481Z,64.69
2023-05-07T05:32:01.014Z,64.70
2023-05-07T05:34:28.891Z,64.52
2023-05-07T05:36:56.656Z,64.61
2023-05-07T05:39:24.820Z,64.95
2023-05-07T05:41:52.722Z,64.81
2023-05-07T05:44:21.915Z,64.82
2023-05-07T05:46:50.740Z,64.69
2023-05-07T05:49:18.662Z,64.89
2023-05-07T05:51:46.987Z,64.92
2023-05-07T05:54:15.086Z,65.15
2023-05-07T05:56:43.628Z,64.95
2023-05-07T05:59:11.564Z,64.86
2023-05-07T06:01:41.006Z,65.01
2023-05-07T06:04:09.066Z,65.04
2023-05-07T06:06:36.939Z,64.98
2023-05-07T06:09:04.982Z,65.09
2023-05-07T06:11:33.728Z,65.06
2023-05-07T06:14:01.539Z,65.11
2023-05-07T06:16:29.651Z,67.25
2023-05-07T06:18:58.938Z,66.70
2023-05-07T06:21:26.790Z,66.27
2023-05-07T06:23:55.971Z,66.08
2023-05-07T06:26:23.774Z,65.95
2023-05-07T06:28:51.553Z,65.81
2023-05-07T06:31:22.580Z,65.63
2023-05-07T06:33:51.174Z,65.77
2023-05-07T06:36:20.491Z,66.09
2023-05-07T06:38:48.265Z,67.38
2023-05-07T06:41:16.028Z,66.72
2023-05-07T06:43:43.806Z,66.46
2023-05-07T06:46:11.674Z,66.26
2023-05-07T06:48:39.527Z,66.47
2023-05-07T06:51:07.329Z,66.46
2023-05-07T06:53:37.691Z,66.76
2023-05-07T06:56:05.933Z,66.48
2023-05-07T06:58:34.111Z,66.41
2023-05-07T07:01:02.037Z,66.27
2023-05-07T07:03:29.865Z,66.39
2023-05-07T07:05:57.750Z,66.25
2023-05-07T07:08:25.606Z,65.93
2023-05-07T07:10:54.727Z,66.08
2023-05-07T07:13:22.609Z,66.33
2023-05-07T07:15:50.706Z,66.29
2023-05-07T07:18:18.525Z,66.28
2023-05-07T07:20:46.637Z,66.07
2023-05-07T07:23:14.453Z,65.69
2023-05-07T07:25:42.394Z,65.37
2023-05-07T07:28:11.740Z,65.88
2023-05-07T07:30:40.054Z,65.70
2023-05-07T07:33:07.948Z,65.96
2023-05-07T07:35:35.993Z,65.51
2023-05-07T07:38:03.819Z,66.23
2023-05-07T07:40:31.564Z,65.89
2023-05-07T07:42:59.785Z,65.78
2023-05-07T07:45:28.936Z,65.75
2023-05-07T07:47:56.824Z,65.79
2023-05-07T07:50:36.021Z,65.95
2023-05-07T07:53:11.151Z,67.70
2023-05-07T07:55:40.737Z,67.13
2023-05-07T07:58:09.029Z,67.11
2023-05-07T08:00:38.444Z,66.78
2023-05-07T08:03:07.864Z,66.81
2023-05-07T08:05:36.297Z,66.74
2023-05-07T08:08:04.152Z,67.21
2023-05-07T08:10:36.044Z,67.11
2023-05-07T08:13:04.910Z,67.08
2023-05-07T08:15:33.104Z,67.39
2023-05-07T08:18:03.155Z,67.93
2023-05-07T08:20:31.230Z,67.42
2023-05-07T08:22:59.055Z,67.57
2023-05-07T08:25:26.947Z,68.09
2023-05-07T08:27:54.940Z,68.16
2023-05-07T08:30:23.568Z,68.42
2023-05-07T08:32:51.417Z,68.17
2023-05-07T08:35:21.124Z,67.70
2023-05-07T08:37:48.945Z,67.23
2023-05-07T08:40:17.114Z,67.15
2023-05-07T08:42:46.647Z,67.06
2023-05-07T08:45:15.640Z,66.84
2023-05-07T08:47:47.113Z,66.93
2023-05-07T08:50:15.510Z,66.77
2023-05-07T08:52:44.898Z,67.00
2023-05-07T08:55:13.110Z,66.93
2023-05-07T08:57:41.396Z,66.99
2023-05-07T09:00:10.874Z,67.23
2023-05-07T09:02:39.196Z,67.55
2023-05-07T09:05:08.179Z,67.65
2023-05-07T09:07:36.258Z,67.61
2023-05-07T09:10:06.977Z,67.73
2023-05-07T09:12:36.277Z,67.63
2023-05-07T09:15:04.309Z,67.61
2023-05-07T09:17:32.130Z,67.26
2023-05-07T09:20:06.125Z,67.41
2023-05-07T09:22:34.921Z,67.41
2023-05-07T09:25:02.719Z,67.01
2023-05-07T09:27:32.568Z,66.93
2023-05-07T09:30:00.487Z,67.05
2023-05-07T09:32:28.736Z,67.33
2023-05-07T09:34:56.648Z,67.37
2023-05-07T09:37:24.617Z,67.35
2023-05-07T09:39:52.649Z,67.16
2023-05-07T09:42:25.344Z,66.87
2023-05-07T09:44:55.202Z,66.82
2023-05-07T09:47:26.756Z,66.52
2023-05-07T09:49:59.509Z,66.76
2023-05-07T09:52:34.489Z,69.97
2023-05-07T09:55:04.564Z,69.08
2023-05-07T09:57:34.189Z,68.85
2023-05-07T10:00:05.247Z,69.05
2023-05-07T10:02:38.043Z,68.90
2023-05-07T10:05:07.090Z,68.87
2023-05-07T10:07:35.083Z,68.67
2023-05-07T10:10:03.800Z,68.72
2023-05-07T10:12:38.738Z,68.88
2023-05-07T10:15:10.299Z,68.83
2023-05-07T10:17:39.355Z,69.05
2023-05-07T10:20:08.727Z,69.01
2023-05-07T10:22:52.026Z,69.27
2023-05-07T10:25:32.060Z,69.37
2023-05-07T10:28:03.135Z,68.62
2023-05-07T10:30:43.816Z,69.43
2023-05-07T10:33:14.226Z,69.60
2023-05-07T10:35:44.879Z,69.15
2023-05-07T10:38:13.209Z,69.10
2023-05-07T10:40:41.824Z,69.17
2023-05-07T10:43:10.913Z,69.60
2023-05-07T10:45:40.403Z,69.62
2023-05-07T10:48:27.197Z,69.16
2023-05-07T10:51:21.785Z,69.64
2023-05-07T10:53:49.784Z,69.39
2023-05-07T10:56:29.112Z,69.22
2023-05-07T10:58:56.986Z,68.63
2023-05-07T11:01:54.762Z,68.74
2023-05-07T11:04:27.742Z,68.56
2023-05-07T11:07:32.545Z,68.29
2023-05-07T11:10:05.740Z,68.24
2023-05-07T11:12:56.421Z,68.06
2023-05-07T11:15:47.366Z,67.63
2023-05-07T11:18:18.282Z,67.84
2023-05-07T11:20:52.120Z,67.82
2023-05-07T11:24:02.136Z,67.87
2023-05-07T11:26:32.380Z,67.84
2023-05-07T11:29:01.336Z,67.73
2023-05-07T11:31:31.060Z,67.55
2023-05-07T11:34:01.104Z,67.68
2023-05-07T11:36:34.675Z,67.48
2023-05-07T11:39:02.505Z,67.53
2023-05-07T11:41:38.066Z,67.51
2023-05-07T11:44:06.173Z,67.17
2023-05-07T11:46:34.590Z,67.30
2023-05-07T11:49:03.864Z,67.47
2023-05-07T11:51:32.625Z,67.27
2023-05-07T11:54:00.792Z,66.96
2023-05-07T11:56:28.690Z,66.85
2023-05-07T11:58:56.522Z,66.67
2023-05-07T12:01:24.264Z,66.83
2023-05-07T12:03:52.262Z,66.37
2023-05-07T12:06:21.597Z,66.53
2023-05-07T12:08:49.503Z,66.37
2023-05-07T12:11:19.718Z,66.17
2023-05-07T12:13:47.563Z,66.22
2023-05-07T12:16:16.492Z,66.48
2023-05-07T12:18:44.921Z,66.52
2023-05-07T12:21:13.864Z,66.69
2023-05-07T12:23:43.306Z,67.10
2023-05-07T12:26:11.739Z,66.55
2023-05-07T12:28:40.958Z,66.53
2023-05-07T12:31:09.349Z,67.28
2023-05-07T12:33:37.952Z,67.20
2023-05-07T12:36:08.641Z,67.56
2023-05-07T12:38:41.230Z,67.33
2023-05-07T12:41:11.979Z,67.61
2023-05-07T12:43:40.291Z,67.39
2023-05-07T12:46:09.632Z,67.07
2023-05-07T12:48:39.771Z,67.02
2023-05-07T12:51:08.635Z,67.04
2023-05-07T12:53:42.403Z,67.28
2023-05-07T12:56:11.591Z,67.01
2023-05-07T12:58:39.558Z,66.98
2023-05-07T13:01:11.308Z,67.12
2023-05-07T13:03:40.486Z,67.10
2023-05-07T13:06:13.169Z,67.45
2023-05-07T13:08:44.373Z,67.59
2023-05-07T13:11:14.941Z,67.48
2023-05-07T13:13:43.254Z,67.57
2023-05-07T13:16:13.480Z,67.87
2023-05-07T13:18:45.068Z,67.93
2023-05-07T13:21:14.248Z,67.83
2023-05-07T13:23:42.341Z,67.87
2023-05-07T13:26:24.987Z,67.98
2023-05-07T13:28:55.763Z,67.95
2023-05-07T13:31:23.670Z,67.86
2023-05-07T13:33:51.830Z,67.72
2023-05-07T13:36:19.695Z,67.76
2023-05-07T13:38:47.502Z,67.48
2023-05-07T13:41:15.827Z,67.52
2023-05-07T13:43:43.883Z,67.41
2023-05-07T13:46:13.136Z,67.53
2023-05-07T13:48:41.064Z,67.32
2023-05-07T13:51:09.093Z,67.62
2023-05-07T13:53:36.965Z,67.29
2023-05-07T13:56:06.127Z,67.25
2023-05-07T13:58:34.047Z,67.35
2023-05-07T14:01:02.141Z,67.96
2023-05-07T14:03:33.049Z,67.63
2023-05-07T14:06:02.352Z,67.72
2023-05-07T14:08:31.678Z,67.90
2023-05-07T14:10:59.876Z,67.75
2023-05-07T14:13:28.349Z,67.81
2023-05-07T14:15:56.337Z,67.79
2023-05-07T14:18:24.183Z,67.74
2023-05-07T14:20:53.352Z,68.03
2023-05-07T14:23:23.142Z,68.15
2023-05-07T14:25:51.049Z,68.04
2023-05-07T14:28:18.881Z,68.01
2023-05-07T14:30:46.789Z,68.18
2023-05-07T14:33:14.617Z,68.26
2023-05-07T14:35:42.423Z,68.62
2023-05-07T14:38:11.612Z,69.02
2023-05-07T14:40:39.696Z,70.08
2023-05-07T14:43:07.481Z,70.32
2023-05-07T14:45:35.675Z,71.32
2023-05-07T14:48:04.046Z,70.80
2023-05-07T14:50:32.035Z,70.76
2023-05-07T14:52:59.793Z,70.65
2023-05-07T14:55:29.012Z,70.28
2023-05-07T14:57:57.988Z,70.40
2023-05-07T15:00:25.971Z,70.79
2023-05-07T15:02:54.065Z,70.47
2023-05-07T15:05:21.964Z,70.71
2023-05-07T15:07:49.907Z,70.97
2023-05-07T15:10:17.926Z,71.17
2023-05-07T15:12:47.578Z,71.78
2023-05-07T15:15:15.819Z,71.25
2023-05-07T15:17:43.655Z,71.20
2023-05-07T15:20:11.713Z,70.80
2023-05-07T15:22:39.569Z,70.40
2023-05-07T15:25:07.827Z,70.21
2023-05-07T15:27:35.869Z,70.38
2023-05-07T15:30:05.991Z,70.09
2023-05-07T15:32:33.806Z,70.03
2023-05-07T15:35:01.724Z,69.97
2023-05-07T15:37:29.548Z,69.95
2023-05-07T15:39:57.328Z,69.97
2023-05-07T15:42:25.157Z,69.60
2023-05-07T15:44:53.045Z,69.64
2023-05-07T15:47:23.152Z,69.45
2023-05-07T15:49:51.003Z,69.47
2023-05-07T15:52:18.896Z,69.41
2023-05-07T15:54:46.904Z,69.32
2023-05-07T15:57:14.685Z,69.22
2023-05-07T15:59:42.486Z,69.37
2023-05-07T16:02:10.437Z,69.32
2023-05-07T16:04:39.635Z,69.14
2023-05-07T16:07:07.850Z,69.07
2023-05-07T16:09:35.747Z,69.04
2023-05-07T16:12:03.902Z,69.12
2023-05-07T16:14:32.088Z,69.37
2023-05-07T16:17:00.017Z,69.26
2023-05-07T16:19:28.976Z,69.27
2023-05-07T16:21:58.250Z,69.07
2023-05-07T16:24:26.101Z,69.04
2023-05-07T16:26:53.893Z,68.85
2023-05-07T16:29:23.190Z,68.70
2023-05-07T16:31:51.125Z,68.78
2023-05-07T16:34:19.060Z,68.77
2023-05-07T16:36:47.062Z,68.53
2023-05-07T16:39:16.196Z,68.58
2023-05-07T16:41:44.353Z,68.61
2023-05-07T16:44:12.198Z,68.50
2023-05-07T16:46:39.991Z,68.57
2023-05-07T16:49:07.791Z,68.38
2023-05-07T16:51:36.073Z,68.50
2023-05-07T16:54:03.843Z,68.37
2023-05-07T16:56:33.072Z,68.39
2023-05-07T16:59:00.879Z,68.27
2023-05-07T17:01:32.651Z,67.90
2023-05-07T17:04:02.032Z,68.09
2023-05-07T17:06:29.878Z,67.91
2023-05-07T17:08:57.844Z,68.00
2023-05-07T17:11:27.977Z,67.68
2023-05-07T17:13:57.735Z,67.72
2023-05-07T17:16:25.626Z,67.80
2023-05-07T17:18:53.642Z,67.53
2023-05-07T17:21:21.498Z,67.55
2023-05-07T17:23:49.365Z,67.52
2023-05-07T17:26:17.935Z,67.48
2023-05-07T17:28:45.754Z,67.47
2023-05-07T17:31:14.924Z,67.27
2023-05-07T17:33:42.737Z,67.41
2023-05-07T17:36:10.525Z,67.53
2023-05-07T17:38:38.441Z,67.29
2023-05-07T17:41:06.220Z,67.38
2023-05-07T17:43:34.313Z,67.34
2023-05-07T17:46:03.488Z,67.21
2023-05-07T17:48:32.831Z,67.14
2023-05-07T17:51:03.930Z,67.33
2023-05-07T17:53:32.563Z,67.21
2023-05-07T17:56:00.377Z,67.14
2023-05-07T17:58:28.197Z,67.06
2023-05-07T18:00:56.208Z,67.03
2023-05-07T18:03:24.714Z,67.09
2023-05-07T18:05:54.035Z,67.06
2023-05-07T18:08:21.866Z,67.12
2023-05-07T18:10:49.717Z,67.29
2023-05-07T18:13:17.658Z,67.11
2023-05-07T18:15:46.862Z,67.21
2023-05-07T18:18:14.752Z,67.25
2023-05-07T18:20:42.601Z,67.13
2023-05-07T18:23:11.812Z,67.30
2023-05-07T18:25:39.562Z,67.24
2023-05-07T18:28:07.330Z,67.15
2023-05-07T18:30:35.185Z,67.25
2023-05-07T18:33:03.160Z,67.16
2023-05-07T18:35:32.385Z,66.92
2023-05-07T18:38:00.365Z,67.10
2023-05-07T18:40:29.546Z,67.09
2023-05-07T18:42:57.422Z,67.07
2023-05-07T18:45:25.188Z,67.02
2023-05-07T18:47:53.101Z,66.89
2023-05-07T18:50:20.977Z,67.06
2023-05-07T18:52:49.125Z,67.08
2023-05-07T18:55:17.112Z,67.04
2023-05-07T18:57:46.370Z,67.23
2023-05-07T19:00:15.786Z,67.05
2023-05-07T19:02:43.731Z,67.21
2023-05-07T19:05:11.627Z,66.96
2023-05-07T19:07:39.448Z,66.92
2023-05-07T19:10:08.412Z,67.03
2023-05-07T19:12:36.297Z,66.99
2023-05-07T19:15:06.104Z,66.83
2023-05-07T19:17:35.571Z,66.78
2023-05-07T19:20:04.289Z,66.75
2023-05-07T19:22:32.121Z,66.54
2023-05-07T19:24:59.929Z,66.28
2023-05-07T19:27:27.817Z,66.50
2023-05-07T19:29:55.952Z,66.60
2023-05-07T19:32:25.277Z,66.51
2023-05-07T19:34:53.299Z,66.48
2023-05-07T19:37:24.211Z,66.36
2023-05-07T19:39:53.661Z,66.33
2023-05-07T19:42:22.669Z,66.25
2023-05-07T19:44:51.650Z,66.20
2023-05-07T19:47:19.803Z,66.26
2023-05-07T19:49:48.961Z,66.21
2023-05-07T19:52:17.155Z,66.14
2023-05-07T19:54:45.041Z,66.69
2023-05-07T19:57:12.907Z,66.28
2023-05-07T19:59:41.843Z,66.69
2023-05-07T20:02:12.020Z,66.65
2023-05-07T20:04:40.240Z,66.72
2023-05-07T20:07:09.444Z,66.97
2023-05-07T20:09:37.731Z,67.10
2023-05-07T20:12:06.707Z,66.86
2023-05-07T20:14:35.366Z,67.47
2023-05-07T20:17:03.303Z,67.18
2023-05-07T20:19:31.461Z,67.25
2023-05-07T20:21:59.399Z,66.71
2023-05-07T20:24:28.571Z,66.77
2023-05-07T20:26:56.561Z,67.28
2023-05-07T20:29:24.489Z,67.10
2023-05-07T20:31:52.274Z,67.14
2023-05-07T20:34:20.417Z,67.20
2023-05-07T20:36:48.274Z,67.11
2023-05-07T20:39:16.924Z,67.11
2023-05-07T20:41:46.098Z,67.30
2023-05-07T20:44:13.895Z,67.42
2023-05-07T20:46:42.046Z,67.41
2023-05-07T20:49:09.837Z,67.78
2023-05-07T20:51:37.689Z,67.86
2023-05-07T20:54:05.677Z,67.85
2023-05-07T20:56:33.392Z,68.05
2023-05-07T20:59:02.723Z,67.85
2023-05-07T21:01:30.581Z,67.81
2023-05-07T21:03:58.348Z,67.95
2023-05-07T21:06:29.028Z,67.90
2023-05-07T21:08:56.970Z,68.01
2023-05-07T21:11:24.801Z,67.90
2023-05-07T21:13:52.999Z,67.92
2023-05-07T21:16:25.033Z,68.11
2023-05-07T21:18:53.149Z,67.92
2023-05-07T21:21:20.946Z,67.89
2023-05-07T21:23:50.955Z,68.07
2023-05-07T21:26:19.445Z,68.06
2023-05-07T21:28:47.498Z,67.79
2023-05-07T21:31:15.409Z,67.85
2023-05-07T21:33:45.524Z,68.18
2023-05-07T21:36:13.596Z,68.12
2023-05-07T21:38:41.959Z,68.20
2023-05-07T21:41:09.906Z,68.00
2023-05-07T21:43:37.687Z,67.97
2023-05-07T21:46:08.498Z,68.13
2023-05-07T21:48:36.649Z,68.00
2023-05-07T21:51:07.594Z,68.14
2023-05-07T21:53:35.940Z,68.16
2023-05-07T21:56:05.056Z,68.26
2023-05-07T21:58:33.205Z,68.39
2023-05-07T22:01:01.877Z,68.62
2023-05-07T22:03:29.924Z,68.57
2023-05-07T22:05:58.031Z,68.53
2023-05-07T22:08:27.237Z,68.29
2023-05-07T22:10:55.008Z,68.34
2023-05-07T22:13:22.890Z,68.28
2023-05-07T22:15:57.478Z,68.23
2023-05-07T22:18:26.594Z,68.15
2023-05-07T22:20:54.566Z,68.27
2023-05-07T22:23:22.340Z,68.11
2023-05-07T22:25:51.801Z,68.22
2023-05-07T22:28:19.614Z,68.11
2023-05-07T22:30:47.563Z,68.17
2023-05-07T22:33:15.381Z,68.36
2023-05-07T22:35:43.227Z,68.56
2023-05-07T22:38:11.075Z,68.22
2023-05-07T22:40:38.854Z,68.37
2023-05-07T22:43:08.062Z,68.48
2023-05-07T22:45:35.953Z,68.44
2023-05-07T22:48:03.960Z,68.41
2023-05-07T22:50:31.894Z,68.59
2023-05-07T22:52:59.793Z,68.48
2023-05-07T22:55:27.664Z,68.63
2023-05-07T22:57:55.488Z,68.40
2023-05-07T23:00:25.346Z,68.49
2023-05-07T23:02:53.231Z,68.57
2023-05-07T23:05:21.557Z,68.34
2023-05-07T23:07:49.423Z,68.68
2023-05-07T23:10:17.638Z,68.57
2023-05-07T23:12:49.225Z,68.36
2023-05-07T23:15:17.230Z,68.49
2023-05-07T23:17:47.813Z,68.61
2023-05-07T23:20:16.939Z,68.51
2023-05-07T23:22:44.755Z,68.76
2023-05-07T23:25:12.596Z,68.75
2023-05-07T23:27:40.484Z,68.60
2023-05-07T23:30:09.774Z,68.73
2023-05-07T23:32:37.888Z,68.67
2023-05-07T23:35:08.284Z,68.94
2023-05-07T23:37:36.347Z,69.11
2023-05-07T23:40:04.592Z,68.79
2023-05-07T23:42:32.695Z,68.93
2023-05-07T23:45:00.637Z,68.93
2023-05-07T23:47:28.558Z,68.76
2023-05-07T23:49:56.389Z,68.99
2023-05-07T23:52:25.861Z,69.25
2023-05-07T23:54:54.037Z,69.03
2023-05-07T23:57:21.800Z,69.04
2023-05-07T23:59:49.582Z,69.03
